sensor_id;sensor_type;location;lat;lon;timestamp;pressure;altitude;pressure_sealevel;temperature;humidity
26178;BME280;13924;47.670;10.310;2023-05-08T00:00:42;94200;;;12.3;100.0
26178;BME280;13924;47.670;10.310;2023-05-08T00:15:44;94180;;;12.0;100.0
26178;BME280;13924;47.670;10.310;2023-05-08T00:30:58;94180;;;12.0;100.0
26178;BME280;13924;47.670;10.310;2023-05-08T00:45:45;94190;;;12.0;100.0
26178;BME280;13924;47.670;10.310;2023-05-08T01:00:49;94210;;;11.8;100.0
26178;BME280;13924;47.670;10.310;2023-05-08T01:01:28;94210;;;11.8;100.0
26178;BME280;13924;47.670;10.310;2023-05-08T01:15:50;94210;;;12.1;100.0
26178;BME280;13924;47.670;10.310;2023-05-08T01:31:01;94210;;;11.9;100.0
26178;BME280;13924;47.670;10.310;2023-05-08T01:45:49;94190;;;12.1;100.0
26178;BME280;13924;47.670;10.310;2023-05-08T02:00:49;94240;;;11.8;100.0
26178;BME280;13924;47.670;10.310;2023-05-08T02:15:52;94220;;;11.9;100.0
26178;BME280;13924;47.670;10.310;2023-05-08T02:30:50;94240;;;11.7;100.0
26178;BME280;13924;47.670;10.310;2023-05-08T02:46:01;94240;;;11.6;100.0
26178;BME280;13924;47.670;10.310;2023-05-08T03:00:55;94230;;;11.7;100.0
26178;BME280;13924;47.670;10.310;2023-05-08T03:15:55;94230;;;11.7;100.0
26178;BME280;13924;47.670;10.310;2023-05-08T03:30:53;94210;;;11.7;100.0
26178;BME280;13924;47.670;10.310;2023-05-08T03:46:05;94210;;;11.7;100.0
26178;BME280;13924;47.670;10.310;2023-05-08T04:01:00;94230;;;11.6;100.0
26178;BME280;13924;47.670;10.310;2023-05-08T04:15:53;94220;;;11.7;100.0
26178;BME280;13924;47.670;10.310;2023-05-08T04:30:46;94250;;;11.5;100.0
26178;BME280;13924;47.670;10.310;2023-05-08T05:45:51;94290;;;11.7;100.0
26178;BME280;13924;47.670;10.310;2023-05-08T06:15:53;94310;;;12.2;100.0
26178;BME280;13924;47.670;10.310;2023-05-08T06:30:52;94330;;;12.4;100.0
26178;BME280;13924;47.670;10.310;2023-05-08T06:45:54;94320;;;12.4;100.0
26178;BME280;13924;47.670;10.310;2023-05-08T07:00:53;94310;;;12.5;100.0
26178;BME280;13924;47.670;10.310;2023-05-08T07:15:56;94300;;;12.9;100.0
26178;BME280;13924;47.670;10.310;2023-05-08T07:30:55;94270;;;12.7;100.0
26178;BME280;13924;47.670;10.310;2023-05-08T07:45:56;94260;;;12.9;100.0
26178;BME280;13924;47.670;10.310;2023-05-08T08:00:57;94220;;;13.1;100.0
26178;BME280;13924;47.670;10.310;2023-05-08T08:15:57;94140;;;13.3;100.0
26178;BME280;13924;47.670;10.310;2023-05-08T08:30:57;94030;;;13.8;100.0
26178;BME280;13924;47.670;10.310;2023-05-08T08:46:02;93920;;;14.2;100.0
26178;BME280;13924;47.670;10.310;2023-05-08T09:01:00;93880;;;14.4;100.0
26178;BME280;13924;47.670;10.310;2023-05-08T09:16:00;93870;;;14.9;100.0
26178;BME280;13924;47.670;10.310;2023-05-08T09:31:00;93760;;;15.0;100.0
26178;BME280;13924;47.670;10.310;2023-05-08T09:46:20;93730;;;15.8;100.0
26178;BME280;13924;47.670;10.310;2023-05-08T10:01:03;93760;;;16.5;100.0
26178;BME280;13924;47.670;10.310;2023-05-08T10:16:03;93660;;;16.8;100.0
26178;BME280;13924;47.670;10.310;2023-05-08T10:31:06;93670;;;16.9;100.0
26178;BME280;13924;47.670;10.310;2023-05-08T10:46:12;93640;;;17.2;100.0
26178;BME280;13924;47.670;10.310;2023-05-08T11:01:15;93640;;;17.2;100.0
26178;BME280;13924;47.670;10.310;2023-05-08T11:16:06;93590;;;18.1;100.0
26178;BME280;13924;47.670;10.310;2023-05-08T11:31:07;93590;;;17.7;100.0
26178;BME280;13924;47.670;10.310;2023-05-08T11:46:13;93590;;;17.5;100.0
26178;BME280;13924;47.670;10.310;2023-05-08T12:01:07;93720;;;15.9;100.0
26178;BME280;13924;47.670;10.310;2023-05-08T12:16:09;93880;;;15.3;100.0
26178;BME280;13924;47.670;10.310;2023-05-08T12:31:09;93870;;;15.7;100.0
26178;BME280;13924;47.670;10.310;2023-05-08T12:46:10;93990;;;15.9;100.0
26178;BME280;13924;47.670;10.310;2023-05-08T13:01:11;94110;;;15.7;100.0
26178;BME280;13924;47.670;10.310;2023-05-08T13:16:09;94010;;;16.3;100.0
26178;BME280;13924;47.670;10.310;2023-05-08T13:31:10;93860;;;17.4;100.0
26178;BME280;13924;47.670;10.310;2023-05-08T13:46:11;93780;;;17.4;100.0
26178;BME280;13924;47.670;10.310;2023-05-08T14:01:11;93850;;;17.1;100.0
26178;BME280;13924;47.670;10.310;2023-05-08T14:16:13;93880;;;16.8;100.0
26178;BME280;13924;47.670;10.310;2023-05-08T14:31:13;93960;;;16.6;100.0
26178;BME280;13924;47.670;10.310;2023-05-08T14:46:13;93970;;;16.8;100.0
26178;BME280;13924;47.670;10.310;2023-05-08T15:01:14;93950;;;16.5;100.0
26178;BME280;13924;47.670;10.310;2023-05-08T15:16:17;93950;;;16.5;100.0
26178;BME280;13924;47.670;10.310;2023-05-08T15:31:15;94090;;;15.7;100.0
26178;BME280;13924;47.670;10.310;2023-05-08T15:46:16;94100;;;15.5;100.0
